sensor_id;sensor_type;location;lat;lon;timestamp;pressure;altitude;pressure_sealevel;temperature;humidity
78675;BME280;67990;59.826;30.108;2023-04-12T00:02:20;101614.03;;;7.02;50.91
78675;BME280;67990;59.826;30.108;2023-04-12T00:04:47;101620.81;;;6.61;52.14
78675;BME280;67990;59.826;30.108;2023-04-12T00:07:38;101621.25;;;6.54;52.62
78675;BME280;67990;59.826;30.108;2023-04-12T00:10:08;101618.16;;;6.77;51.71
78675;BME280;67990;59.826;30.108;2023-04-12T00:12:35;101611.53;;;6.42;52.19
78675;BME280;67990;59.826;30.108;2023-04-12T00:15:21;101616.16;;;6.66;51.95
78675;BME280;67990;59.826;30.108;2023-04-12T00:18:07;101614.81;;;6.59;51.81
78675;BME280;67990;59.826;30.108;2023-04-12T00:20:54;101613.56;;;6.37;52.32
78675;BME280;67990;59.826;30.108;2023-04-12T00:23:21;101616.44;;;6.17;53.18
78675;BME280;67990;59.826;30.108;2023-04-12T00:26:25;101615.91;;;6.26;52.52
78675;BME280;67990;59.826;30.108;2023-04-12T00:29:28;101613.38;;;6.24;52.87
78675;BME280;67990;59.826;30.108;2023-04-12T00:31:56;101608.06;;;6.26;52.93
78675;BME280;67990;59.826;30.108;2023-04-12T00:34:25;101614.56;;;6.64;51.92
78675;BME280;67990;59.826;30.108;2023-04-12T00:36:53;101611.72;;;6.68;51.61
78675;BME280;67990;59.826;30.108;2023-04-12T00:42:05;101616.50;;;6.76;51.10
78675;BME280;67990;59.826;30.108;2023-04-12T00:44:51;101617.81;;;6.83;50.56
78675;BME280;67990;59.826;30.108;2023-04-12T00:47:19;101611.09;;;6.79;50.70
78675;BME280;67990;59.826;30.108;2023-04-12T00:55:39;101620.38;;;7.12;49.65
78675;BME280;67990;59.826;30.108;2023-04-12T00:58:24;101635.09;;;6.85;50.23
78675;BME280;67990;59.826;30.108;2023-04-12T01:00:52;101633.44;;;6.69;51.12
78675;BME280;67990;59.826;30.108;2023-04-12T01:03:20;101625.50;;;7.00;50.39
78675;BME280;67990;59.826;30.108;2023-04-12T01:05:59;101630.28;;;7.21;49.90
78675;BME280;67990;59.826;30.108;2023-04-12T01:08:53;101628.28;;;7.26;49.58
78675;BME280;67990;59.826;30.108;2023-04-12T01:11:46;101625.34;;;7.03;49.95
78675;BME280;67990;59.826;30.108;2023-04-12T01:14:42;101620.47;;;6.97;49.86
78675;BME280;67990;59.826;30.108;2023-04-12T01:17:14;101629.56;;;6.90;49.49
78675;BME280;67990;59.826;30.108;2023-04-12T01:20:06;101622.00;;;6.56;50.42
78675;BME280;67990;59.826;30.108;2023-04-12T01:23:11;101624.28;;;6.46;50.97
78675;BME280;67990;59.826;30.108;2023-04-12T01:25:51;101620.56;;;6.50;51.02
78675;BME280;67990;59.826;30.108;2023-04-12T01:28:28;101621.31;;;6.68;50.78
78675;BME280;67990;59.826;30.108;2023-04-12T01:31:34;101611.69;;;6.98;49.96
78675;BME280;67990;59.826;30.108;2023-04-12T01:34:24;101615.06;;;6.70;50.40
78675;BME280;67990;59.826;30.108;2023-04-12T01:36:54;101611.47;;;6.57;50.76
78675;BME280;67990;59.826;30.108;2023-04-12T01:39:40;101617.19;;;6.64;50.84
78675;BME280;67990;59.826;30.108;2023-04-12T01:42:08;101614.97;;;6.72;50.61
78675;BME280;67990;59.826;30.108;2023-04-12T01:44:36;101616.50;;;6.76;50.34
78675;BME280;67990;59.826;30.108;2023-04-12T01:47:04;101617.13;;;6.95;49.95
78675;BME280;67990;59.826;30.108;2023-04-12T01:49:35;101621.25;;;7.13;50.01
78675;BME280;67990;59.826;30.108;2023-04-12T01:52:26;101608.75;;;7.18;49.42
78675;BME280;67990;59.826;30.108;2023-04-12T01:55:00;101616.75;;;7.01;49.91
78675;BME280;67990;59.826;30.108;2023-04-12T01:57:32;101614.38;;;6.96;50.16
78675;BME280;67990;59.826;30.108;2023-04-12T02:00:01;101622.34;;;7.09;50.05
78675;BME280;67990;59.826;30.108;2023-04-12T02:02:39;101614.81;;;7.18;49.57
78675;BME280;67990;59.826;30.108;2023-04-12T02:05:43;101615.94;;;7.14;49.66
78675;BME280;67990;59.826;30.108;2023-04-12T02:08:11;101617.22;;;7.07;50.29
78675;BME280;67990;59.826;30.108;2023-04-12T02:10:38;101609.44;;;6.92;50.58
78675;BME280;67990;59.826;30.108;2023-04-12T02:13:05;101613.97;;;7.04;50.10
78675;BME280;67990;59.826;30.108;2023-04-12T02:15:34;101616.47;;;7.05;50.00
78675;BME280;67990;59.826;30.108;2023-04-12T02:18:01;101626.00;;;7.06;49.86
78675;BME280;67990;59.826;30.108;2023-04-12T02:29:05;101610.56;;;6.88;50.18
78675;BME280;67990;59.826;30.108;2023-04-12T02:31:36;101621.53;;;6.79;50.07
78675;BME280;67990;59.826;30.108;2023-04-12T02:34:06;101614.66;;;6.33;51.38
78675;BME280;67990;59.826;30.108;2023-04-12T02:39:20;101611.50;;;6.87;50.42
78675;BME280;67990;59.826;30.108;2023-04-12T02:42:07;101608.88;;;6.87;50.10
78675;BME280;67990;59.826;30.108;2023-04-12T02:47:22;101611.69;;;6.98;49.68
78675;BME280;67990;59.826;30.108;2023-04-12T02:49:53;101597.16;;;7.08;49.60
78675;BME280;67990;59.826;30.108;2023-04-12T02:52:22;101608.28;;;7.11;49.94
78675;BME280;67990;59.826;30.108;2023-04-12T02:55:01;101597.16;;;7.08;49.44
78675;BME280;67990;59.826;30.108;2023-04-12T02:57:29;101604.72;;;7.12;49.43
78675;BME280;67990;59.826;30.108;2023-04-12T02:59:56;101605.91;;;6.93;49.87
78675;BME280;67990;59.826;30.108;2023-04-12T03:02:57;101602.88;;;6.85;49.98
78675;BME280;67990;59.826;30.108;2023-04-12T03:05:27;101610.09;;;6.95;49.44
78675;BME280;67990;59.826;30.108;2023-04-12T03:07:54;101607.78;;;7.05;49.44
78675;BME280;67990;59.826;30.108;2023-04-12T03:13:20;101609.38;;;6.93;49.55
78675;BME280;67990;59.826;30.108;2023-04-12T03:15:56;101624.56;;;6.87;50.25
78675;BME280;67990;59.826;30.108;2023-04-12T03:18:44;101611.41;;;6.88;50.60
78675;BME280;67990;59.826;30.108;2023-04-12T03:21:11;101615.00;;;6.86;51.19
78675;BME280;67990;59.826;30.108;2023-04-12T03:23:40;101622.25;;;6.67;51.92
78675;BME280;67990;59.826;30.108;2023-04-12T03:26:15;101614.81;;;6.75;51.99
78675;BME280;67990;59.826;30.108;2023-04-12T03:29:02;101623.47;;;6.75;52.28
78675;BME280;67990;59.826;30.108;2023-04-12T03:31:51;101624.06;;;6.80;51.77
78675;BME280;67990;59.826;30.108;2023-04-12T03:34:20;101625.34;;;6.73;52.17
78675;BME280;67990;59.826;30.108;2023-04-12T03:36:51;101626.94;;;6.76;51.98
78675;BME280;67990;59.826;30.108;2023-04-12T03:39:25;101629.38;;;6.79;51.85
78675;BME280;67990;59.826;30.108;2023-04-12T03:41:52;101624.50;;;6.73;51.82
78675;BME280;67990;59.826;30.108;2023-04-12T03:47:48;101631.38;;;6.74;51.64
78675;BME280;67990;59.826;30.108;2023-04-12T03:50:35;101631.78;;;6.82;51.37
78675;BME280;67990;59.826;30.108;2023-04-12T03:53:13;101634.50;;;6.80;51.25
78675;BME280;67990;59.826;30.108;2023-04-12T03:55:43;101645.63;;;6.84;51.34
78675;BME280;67990;59.826;30.108;2023-04-12T03:58:11;101643.75;;;6.86;51.18
78675;BME280;67990;59.826;30.108;2023-04-12T04:00:42;101642.28;;;6.96;51.14
78675;BME280;67990;59.826;30.108;2023-04-12T04:03:10;101641.34;;;6.97;50.83
78675;BME280;67990;59.826;30.108;2023-04-12T04:05:44;101638.13;;;7.07;49.99
78675;BME280;67990;59.826;30.108;2023-04-12T04:08:32;101638.03;;;7.09;50.10
78675;BME280;67990;59.826;30.108;2023-04-12T04:10:59;101625.63;;;7.12;49.80
78675;BME280;67990;59.826;30.108;2023-04-12T04:13:33;101631.06;;;7.23;49.54
78675;BME280;67990;59.826;30.108;2023-04-12T04:16:05;101628.81;;;7.17;50.13
78675;BME280;67990;59.826;30.108;2023-04-12T04:18:34;101630.63;;;7.45;49.29
78675;BME280;67990;59.826;30.108;2023-04-12T04:21:03;101636.78;;;7.58;49.02
78675;BME280;67990;59.826;30.108;2023-04-12T04:26:54;101629.72;;;8.94;46.19
78675;BME280;67990;59.826;30.108;2023-04-12T04:32:14;101644.00;;;10.38;42.78
78675;BME280;67990;59.826;30.108;2023-04-12T04:34:59;101632.66;;;11.41;40.54
78675;BME280;67990;59.826;30.108;2023-04-12T04:37:38;101630.31;;;11.94;39.16
78675;BME280;67990;59.826;30.108;2023-04-12T04:40:06;101635.66;;;12.25;38.26
78675;BME280;67990;59.826;30.108;2023-04-12T04:42:51;101628.09;;;12.21;36.74
78675;BME280;67990;59.826;30.108;2023-04-12T04:48:26;101635.31;;;12.61;37.62
78675;BME280;67990;59.826;30.108;2023-04-12T04:50:54;101633.13;;;13.39;35.20
78675;BME280;67990;59.826;30.108;2023-04-12T04:53:40;101636.94;;;13.25;34.54
78675;BME280;67990;59.826;30.108;2023-04-12T04:56:10;101640.06;;;14.30;34.26
78675;BME280;67990;59.826;30.108;2023-04-12T04:58:37;101631.34;;;14.48;32.87
78675;BME280;67990;59.826;30.108;2023-04-12T05:03:53;101627.44;;;16.28;30.15
78675;BME280;67990;59.826;30.108;2023-04-12T05:06:22;101628.06;;;16.13;28.83
78675;BME280;67990;59.826;30.108;2023-04-12T05:09:09;101621.44;;;14.98;30.61
78675;BME280;67990;59.826;30.108;2023-04-12T05:11:42;101624.50;;;14.46;32.07
78675;BME280;67990;59.826;30.108;2023-04-12T05:14:10;101629.34;;;14.22;31.76
78675;BME280;67990;59.826;30.108;2023-04-12T05:16:38;101625.53;;;15.57;31.14
78675;BME280;67990;59.826;30.108;2023-04-12T05:19:06;101619.63;;;16.27;30.00
78675;BME280;67990;59.826;30.108;2023-04-12T05:21:33;101624.00;;;17.67;27.31
78675;BME280;67990;59.826;30.108;2023-04-12T05:24:00;101631.00;;;17.42;27.52
78675;BME280;67990;59.826;30.108;2023-04-12T05:26:47;101627.34;;;18.76;26.04
78675;BME280;67990;59.826;30.108;2023-04-12T05:29:15;101629.19;;;19.94;24.37
78675;BME280;67990;59.826;30.108;2023-04-12T05:31:42;101621.69;;;20.36;23.45
78675;BME280;67990;59.826;30.108;2023-04-12T05:37:03;101617.06;;;21.34;22.33
78675;BME280;67990;59.826;30.108;2023-04-12T05:39:47;101613.31;;;21.44;22.49
78675;BME280;67990;59.826;30.108;2023-04-12T05:42:18;101611.97;;;21.77;22.31
78675;BME280;67990;59.826;30.108;2023-04-12T05:44:46;101623.69;;;19.17;23.72
78675;BME280;67990;59.826;30.108;2023-04-12T05:47:14;101624.19;;;20.60;23.86
78675;BME280;67990;59.826;30.108;2023-04-12T05:50:00;101616.69;;;22.60;21.80
78675;BME280;67990;59.826;30.108;2023-04-12T05:52:47;101618.09;;;21.33;22.75
78675;BME280;67990;59.826;30.108;2023-04-12T05:55:14;101620.72;;;21.71;21.94
78675;BME280;67990;59.826;30.108;2023-04-12T06:00:30;101623.47;;;22.98;21.07
78675;BME280;67990;59.826;30.108;2023-04-12T06:02:58;101623.13;;;21.80;21.87
78675;BME280;67990;59.826;30.108;2023-04-12T06:05:44;101625.19;;;22.64;21.70
78675;BME280;67990;59.826;30.108;2023-04-12T06:08:29;101617.72;;;23.90;19.93
78675;BME280;67990;59.826;30.108;2023-04-12T06:10:57;101621.63;;;24.22;19.52
78675;BME280;67990;59.826;30.108;2023-04-12T06:13:27;101621.47;;;24.49;19.04
78675;BME280;67990;59.826;30.108;2023-04-12T06:18:40;101620.88;;;23.60;19.71
78675;BME280;67990;59.826;30.108;2023-04-12T06:21:26;101627.59;;;24.24;19.72
78675;BME280;67990;59.826;30.108;2023-04-12T06:23:53;101621.41;;;25.09;19.11
78675;BME280;67990;59.826;30.108;2023-04-12T06:26:20;101621.75;;;25.71;18.32
78675;BME280;67990;59.826;30.108;2023-04-12T06:28:49;101621.28;;;26.01;17.88
78675;BME280;67990;59.826;30.108;2023-04-12T06:31:35;101625.94;;;26.62;17.78
78675;BME280;67990;59.826;30.108;2023-04-12T06:37:08;101621.75;;;26.35;17.66
78675;BME280;67990;59.826;30.108;2023-04-12T06:39:35;101622.03;;;27.14;17.25
78675;BME280;67990;59.826;30.108;2023-04-12T06:42:03;101620.78;;;26.61;17.07
78675;BME280;67990;59.826;30.108;2023-04-12T06:44:49;101619.28;;;27.45;17.07
78675;BME280;67990;59.826;30.108;2023-04-12T06:47:16;101622.47;;;27.11;16.39
78675;BME280;67990;59.826;30.108;2023-04-12T06:49:43;101626.03;;;26.43;17.24
78675;BME280;67990;59.826;30.108;2023-04-12T06:52:10;101613.69;;;26.97;16.97
78675;BME280;67990;59.826;30.108;2023-04-12T06:54:37;101615.63;;;27.57;16.37
78675;BME280;67990;59.826;30.108;2023-04-12T06:57:07;101621.56;;;28.20;16.25
78675;BME280;67990;59.826;30.108;2023-04-12T07:05:26;101617.53;;;29.34;15.80
78675;BME280;67990;59.826;30.108;2023-04-12T07:07:53;101611.91;;;29.58;15.21
78675;BME280;67990;59.826;30.108;2023-04-12T07:10:20;101614.25;;;29.66;15.17
78675;BME280;67990;59.826;30.108;2023-04-12T07:12:47;101625.06;;;29.78;15.06
78675;BME280;67990;59.826;30.108;2023-04-12T07:15:16;101619.41;;;29.45;15.19
78675;BME280;67990;59.826;30.108;2023-04-12T07:18:02;101625.44;;;29.35;14.91
78675;BME280;67990;59.826;30.108;2023-04-12T07:20:47;101618.66;;;28.92;15.36
78675;BME280;67990;59.826;30.108;2023-04-12T07:23:50;101618.22;;;29.18;15.40
78675;BME280;67990;59.826;30.108;2023-04-12T07:26:17;101618.25;;;30.27;14.56
78675;BME280;67990;59.826;30.108;2023-04-12T07:28:44;101621.84;;;30.16;14.33
78675;BME280;67990;59.826;30.108;2023-04-12T07:33:58;101618.53;;;30.42;14.40
78675;BME280;67990;59.826;30.108;2023-04-12T07:36:25;101627.44;;;28.76;16.45
78675;BME280;67990;59.826;30.108;2023-04-12T07:38:52;101620.25;;;28.70;17.11
78675;BME280;67990;59.826;30.108;2023-04-12T07:41:20;101613.59;;;29.99;16.45
78675;BME280;67990;59.826;30.108;2023-04-12T07:43:48;101619.09;;;30.44;14.76
78675;BME280;67990;59.826;30.108;2023-04-12T07:46:16;101623.56;;;30.94;14.46
78675;BME280;67990;59.826;30.108;2023-04-12T07:51:30;101632.28;;;30.80;14.34
78675;BME280;67990;59.826;30.108;2023-04-12T07:53:57;101614.69;;;29.40;16.58
78675;BME280;67990;59.826;30.108;2023-04-12T07:56:24;101616.63;;;27.99;18.54
78675;BME280;67990;59.826;30.108;2023-04-12T07:58:51;101626.03;;;28.26;18.55
78675;BME280;67990;59.826;30.108;2023-04-12T08:01:18;101626.03;;;29.49;17.31
78675;BME280;67990;59.826;30.108;2023-04-12T08:03:46;101626.63;;;30.53;16.26
78675;BME280;67990;59.826;30.108;2023-04-12T08:06:13;101621.50;;;30.40;16.49
78675;BME280;67990;59.826;30.108;2023-04-12T08:09:00;101624.06;;;30.47;16.59
78675;BME280;67990;59.826;30.108;2023-04-12T08:11:27;101619.91;;;29.19;16.95
78675;BME280;67990;59.826;30.108;2023-04-12T08:13:54;101619.53;;;29.04;17.09
78675;BME280;67990;59.826;30.108;2023-04-12T08:16:21;101614.59;;;27.94;18.88
78675;BME280;67990;59.826;30.108;2023-04-12T08:19:07;101624.38;;;29.02;18.37
78675;BME280;67990;59.826;30.108;2023-04-12T08:21:34;101624.06;;;30.47;16.44
78675;BME280;67990;59.826;30.108;2023-04-12T08:26:49;101616.41;;;30.04;16.38
78675;BME280;67990;59.826;30.108;2023-04-12T08:29:16;101615.06;;;29.44;17.59
78675;BME280;67990;59.826;30.108;2023-04-12T08:32:02;101614.84;;;29.57;16.42
78675;BME280;67990;59.826;30.108;2023-04-12T08:34:29;101609.91;;;29.31;16.36
78675;BME280;67990;59.826;30.108;2023-04-12T08:36:57;101612.97;;;27.33;19.21
78675;BME280;67990;59.826;30.108;2023-04-12T08:39:26;101611.47;;;28.27;17.76
78675;BME280;67990;59.826;30.108;2023-04-12T08:41:55;101612.81;;;27.88;17.33
78675;BME280;67990;59.826;30.108;2023-04-12T08:44:40;101613.88;;;25.76;19.57
78675;BME280;67990;59.826;30.108;2023-04-12T08:50:11;101609.41;;;26.83;18.37
78675;BME280;67990;59.826;30.108;2023-04-12T08:52:57;101608.88;;;26.75;18.44
78675;BME280;67990;59.826;30.108;2023-04-12T08:55:25;101608.44;;;27.02;18.81
78675;BME280;67990;59.826;30.108;2023-04-12T08:57:53;101609.75;;;25.67;21.04
78675;BME280;67990;59.826;30.108;2023-04-12T09:00:21;101617.66;;;24.84;22.67
78675;BME280;67990;59.826;30.108;2023-04-12T09:02:48;101610.16;;;25.64;20.22
78675;BME280;67990;59.826;30.108;2023-04-12T09:05:16;101610.31;;;24.39;21.86
78675;BME280;67990;59.826;30.108;2023-04-12T09:08:01;101608.31;;;24.01;23.78
78675;BME280;67990;59.826;30.108;2023-04-12T09:10:48;101619.81;;;24.35;23.81
78675;BME280;67990;59.826;30.108;2023-04-12T09:13:17;101608.97;;;25.02;20.32
78675;BME280;67990;59.826;30.108;2023-04-12T09:16:13;101608.75;;;25.16;20.46
78675;BME280;67990;59.826;30.108;2023-04-12T09:21:51;101613.72;;;25.26;21.77
78675;BME280;67990;59.826;30.108;2023-04-12T09:24:19;101620.25;;;25.95;19.44
78675;BME280;67990;59.826;30.108;2023-04-12T09:27:26;101618.50;;;25.24;21.31
78675;BME280;67990;59.826;30.108;2023-04-12T09:30:05;101624.44;;;24.61;22.12
78675;BME280;67990;59.826;30.108;2023-04-12T09:35:36;101613.13;;;25.43;21.22
78675;BME280;67990;59.826;30.108;2023-04-12T09:38:06;101624.47;;;25.65;20.92
78675;BME280;67990;59.826;30.108;2023-04-12T09:41:16;101625.50;;;24.79;20.94
78675;BME280;67990;59.826;30.108;2023-04-12T09:43:45;101619.53;;;24.17;21.50
78675;BME280;67990;59.826;30.108;2023-04-12T09:46:13;101620.69;;;24.49;22.60
78675;BME280;67990;59.826;30.108;2023-04-12T09:48:47;101613.72;;;24.07;23.96
78675;BME280;67990;59.826;30.108;2023-04-12T09:51:34;101618.88;;;24.75;22.62
78675;BME280;67990;59.826;30.108;2023-04-12T09:54:03;101612.25;;;24.65;24.77
78675;BME280;67990;59.826;30.108;2023-04-12T09:56:34;101610.09;;;24.34;24.30
78675;BME280;67990;59.826;30.108;2023-04-12T09:59:22;101604.47;;;23.82;25.03
78675;BME280;67990;59.826;30.108;2023-04-12T10:01:53;101602.81;;;23.81;24.38
78675;BME280;67990;59.826;30.108;2023-04-12T10:04:20;101598.16;;;23.62;25.42
78675;BME280;67990;59.826;30.108;2023-04-12T10:06:48;101606.91;;;23.71;25.42
78675;BME280;67990;59.826;30.108;2023-04-12T10:09:15;101603.13;;;23.10;25.48
78675;BME280;67990;59.826;30.108;2023-04-12T10:12:01;101614.44;;;23.27;25.55
78675;BME280;67990;59.826;30.108;2023-04-12T10:14:31;101605.00;;;23.31;24.93
78675;BME280;67990;59.826;30.108;2023-04-12T10:16:59;101604.50;;;22.79;26.79
78675;BME280;67990;59.826;30.108;2023-04-12T10:22:31;101598.72;;;23.51;25.57
78675;BME280;67990;59.826;30.108;2023-04-12T10:24:58;101597.94;;;23.23;26.03
78675;BME280;67990;59.826;30.108;2023-04-12T10:27:44;101602.25;;;22.76;27.03
78675;BME280;67990;59.826;30.108;2023-04-12T10:30:23;101598.00;;;22.67;26.02
78675;BME280;67990;59.826;30.108;2023-04-12T10:33:11;101595.88;;;22.41;27.77
78675;BME280;67990;59.826;30.108;2023-04-12T10:35:56;101595.66;;;22.22;27.70
78675;BME280;67990;59.826;30.108;2023-04-12T10:38:44;101596.47;;;22.22;28.50
78675;BME280;67990;59.826;30.108;2023-04-12T10:41:13;101594.72;;;21.94;28.24
78675;BME280;67990;59.826;30.108;2023-04-12T10:44:23;101594.88;;;21.34;29.04
78675;BME280;67990;59.826;30.108;2023-04-12T10:46:53;101596.38;;;20.99;29.55
78675;BME280;67990;59.826;30.108;2023-04-12T10:49:21;101597.94;;;21.08;30.46
78675;BME280;67990;59.826;30.108;2023-04-12T10:52:10;101599.25;;;20.67;30.86
78675;BME280;67990;59.826;30.108;2023-04-12T10:54:38;101600.19;;;20.29;30.71
78675;BME280;67990;59.826;30.108;2023-04-12T10:57:06;101594.06;;;20.21;31.11
78675;BME280;67990;59.826;30.108;2023-04-12T10:59:54;101593.75;;;20.16;31.37
78675;BME280;67990;59.826;30.108;2023-04-12T11:03:06;101586.66;;;20.00;30.95
78675;BME280;67990;59.826;30.108;2023-04-12T11:05:59;101583.03;;;19.47;33.06
78675;BME280;67990;59.826;30.108;2023-04-12T11:11:41;101585.25;;;18.95;34.52
78675;BME280;67990;59.826;30.108;2023-04-12T11:14:28;101582.75;;;18.94;33.90
78675;BME280;67990;59.826;30.108;2023-04-12T11:17:19;101584.91;;;19.06;34.70
78675;BME280;67990;59.826;30.108;2023-04-12T11:19:54;101587.91;;;18.95;34.05
78675;BME280;67990;59.826;30.108;2023-04-12T11:22:23;101584.25;;;18.56;34.20
78675;BME280;67990;59.826;30.108;2023-04-12T11:25:27;101587.03;;;18.47;34.06
78675;BME280;67990;59.826;30.108;2023-04-12T11:28:15;101593.56;;;18.60;33.78
78675;BME280;67990;59.826;30.108;2023-04-12T11:30:48;101587.91;;;18.63;33.44
78675;BME280;67990;59.826;30.108;2023-04-12T11:33:35;101593.41;;;18.70;33.63
78675;BME280;67990;59.826;30.108;2023-04-12T11:42:18;101585.97;;;18.16;35.31
78675;BME280;67990;59.826;30.108;2023-04-12T11:45:04;101591.41;;;18.06;35.97
78675;BME280;67990;59.826;30.108;2023-04-12T11:50:27;101575.50;;;18.14;36.23
78675;BME280;67990;59.826;30.108;2023-04-12T11:55:55;101568.56;;;18.45;35.50
78675;BME280;67990;59.826;30.108;2023-04-12T11:58:40;101579.56;;;18.34;36.07
78675;BME280;67990;59.826;30.108;2023-04-12T12:01:09;101578.34;;;18.29;35.95
78675;BME280;67990;59.826;30.108;2023-04-12T12:03:36;101577.09;;;18.49;35.22
78675;BME280;67990;59.826;30.108;2023-04-12T12:06:03;101576.91;;;18.34;35.30
78675;BME280;67990;59.826;30.108;2023-04-12T12:08:31;101582.88;;;18.36;35.40
78675;BME280;67990;59.826;30.108;2023-04-12T12:11:18;101574.16;;;18.10;36.22
78675;BME280;67990;59.826;30.108;2023-04-12T12:13:47;101571.00;;;18.07;34.64
78675;BME280;67990;59.826;30.108;2023-04-12T12:16:32;101575.22;;;17.84;35.68
78675;BME280;67990;59.826;30.108;2023-04-12T12:19:30;101569.28;;;17.98;36.06
78675;BME280;67990;59.826;30.108;2023-04-12T12:22:11;101568.47;;;17.97;35.65
78675;BME280;67990;59.826;30.108;2023-04-12T12:24:39;101565.59;;;17.83;35.98
78675;BME280;67990;59.826;30.108;2023-04-12T12:27:11;101561.97;;;18.00;35.25
78675;BME280;67990;59.826;30.108;2023-04-12T12:32:25;101572.13;;;17.96;35.74
78675;BME280;67990;59.826;30.108;2023-04-12T12:34:54;101567.56;;;17.81;34.94
78675;BME280;67990;59.826;30.108;2023-04-12T12:37:23;101569.78;;;17.60;34.91
78675;BME280;67990;59.826;30.108;2023-04-12T12:40:10;101565.91;;;17.46;34.58
78675;BME280;67990;59.826;30.108;2023-04-12T12:42:47;101563.03;;;17.14;35.94
78675;BME280;67990;59.826;30.108;2023-04-12T12:45:17;101555.81;;;17.50;36.51
78675;BME280;67990;59.826;30.108;2023-04-12T12:47:46;101550.38;;;17.59;37.25
78675;BME280;67990;59.826;30.108;2023-04-12T12:50:15;101554.59;;;17.78;35.98
78675;BME280;67990;59.826;30.108;2023-04-12T12:53:02;101556.91;;;17.81;35.94
78675;BME280;67990;59.826;30.108;2023-04-12T12:55:31;101558.06;;;17.78;34.66
78675;BME280;67990;59.826;30.108;2023-04-12T12:58:00;101560.38;;;17.73;35.62
78675;BME280;67990;59.826;30.108;2023-04-12T13:00:45;101560.19;;;17.67;33.53
78675;BME280;67990;59.826;30.108;2023-04-12T13:03:12;101557.44;;;17.25;34.07
78675;BME280;67990;59.826;30.108;2023-04-12T13:05:58;101551.53;;;17.31;33.71
78675;BME280;67990;59.826;30.108;2023-04-12T13:08:25;101558.41;;;17.16;33.47
78675;BME280;67990;59.826;30.108;2023-04-12T13:10:53;101559.63;;;16.79;34.20
78675;BME280;67990;59.826;30.108;2023-04-12T13:13:21;101565.53;;;16.73;34.56
78675;BME280;67990;59.826;30.108;2023-04-12T13:16:06;101561.75;;;16.75;33.24
78675;BME280;67990;59.826;30.108;2023-04-12T13:21:19;101556.63;;;16.56;34.04
78675;BME280;67990;59.826;30.108;2023-04-12T13:23:46;101564.44;;;16.58;34.26
78675;BME280;67990;59.826;30.108;2023-04-12T13:26:13;101559.78;;;16.42;33.88
78675;BME280;67990;59.826;30.108;2023-04-12T13:28:59;101557.28;;;16.40;33.96
78675;BME280;67990;59.826;30.108;2023-04-12T13:31:45;101560.09;;;16.57;35.83
78675;BME280;67990;59.826;30.108;2023-04-12T13:34:12;101552.53;;;16.62;34.55
78675;BME280;67990;59.826;30.108;2023-04-12T13:36:40;101559.34;;;16.47;34.91
78675;BME280;67990;59.826;30.108;2023-04-12T13:39:07;101557.13;;;16.60;34.20
78675;BME280;67990;59.826;30.108;2023-04-12T13:41:34;101550.84;;;16.61;35.17
78675;BME280;67990;59.826;30.108;2023-04-12T13:44:03;101562.81;;;16.82;34.57
78675;BME280;67990;59.826;30.108;2023-04-12T13:49:52;101556.97;;;16.79;34.07
78675;BME280;67990;59.826;30.108;2023-04-12T13:52:19;101560.81;;;16.84;33.77
78675;BME280;67990;59.826;30.108;2023-04-12T13:54:47;101564.06;;;16.96;34.28
78675;BME280;67990;59.826;30.108;2023-04-12T13:57:15;101560.78;;;16.76;34.45
78675;BME280;67990;59.826;30.108;2023-04-12T13:59:44;101561.69;;;16.67;32.69
78675;BME280;67990;59.826;30.108;2023-04-12T14:02:30;101565.72;;;16.54;33.44
78675;BME280;67990;59.826;30.108;2023-04-12T14:04:57;101556.69;;;16.47;32.38
78675;BME280;67990;59.826;30.108;2023-04-12T14:07:24;101562.91;;;16.55;33.35
78675;BME280;67990;59.826;30.108;2023-04-12T14:10:30;101563.44;;;16.59;33.82
78675;BME280;67990;59.826;30.108;2023-04-12T14:12:57;101563.66;;;16.48;34.49
78675;BME280;67990;59.826;30.108;2023-04-12T14:15:25;101571.91;;;16.62;32.55
78675;BME280;67990;59.826;30.108;2023-04-12T14:17:52;101570.13;;;16.63;32.33
78675;BME280;67990;59.826;30.108;2023-04-12T14:20:20;101577.69;;;16.58;33.08
78675;BME280;67990;59.826;30.108;2023-04-12T14:22:48;101575.84;;;16.40;33.52
78675;BME280;67990;59.826;30.108;2023-04-12T14:25:16;101575.00;;;16.40;33.28
78675;BME280;67990;59.826;30.108;2023-04-12T14:27:43;101577.63;;;16.50;32.01
78675;BME280;67990;59.826;30.108;2023-04-12T14:30:11;101572.09;;;16.43;32.30
78675;BME280;67990;59.826;30.108;2023-04-12T14:32:40;101574.91;;;16.42;32.36
78675;BME280;67990;59.826;30.108;2023-04-12T14:35:09;101571.97;;;16.17;33.80
78675;BME280;67990;59.826;30.108;2023-04-12T14:37:57;101570.31;;;16.16;32.60
78675;BME280;67990;59.826;30.108;2023-04-12T14:40:24;101569.59;;;16.14;33.77
78675;BME280;67990;59.826;30.108;2023-04-12T14:42:51;101579.34;;;15.96;33.32
78675;BME280;67990;59.826;30.108;2023-04-12T14:48:06;101585.31;;;15.98;32.99
78675;BME280;67990;59.826;30.108;2023-04-12T14:50:34;101588.84;;;15.89;31.90
78675;BME280;67990;59.826;30.108;2023-04-12T14:53:01;101586.34;;;15.88;32.06
78675;BME280;67990;59.826;30.108;2023-04-12T14:55:31;101589.56;;;15.91;32.35
78675;BME280;67990;59.826;30.108;2023-04-12T14:57:58;101583.91;;;15.77;31.71
78675;BME280;67990;59.826;30.108;2023-04-12T15:00:42;101601.28;;;15.52;32.01
78675;BME280;67990;59.826;30.108;2023-04-12T15:03:28;101584.63;;;15.23;31.99
78675;BME280;67990;59.826;30.108;2023-04-12T15:06:16;101588.25;;;15.22;31.99
78675;BME280;67990;59.826;30.108;2023-04-12T15:08:44;101587.88;;;14.98;32.47